createdAt,value
2022-09-04T00:00:14.506Z,71.53
2022-09-04T00:03:15.761Z,70.55
2022-09-04T00:05:52.084Z,74.22
2022-09-04T00:08:37.526Z,72.02
2022-09-04T00:11:16.595Z,74.41
2022-09-04T00:13:52.779Z,72.57
2022-09-04T00:16:25.281Z,71.15
2022-09-04T00:19:02.778Z,70.36
2022-09-04T00:21:38.497Z,69.77
2022-09-04T00:24:11.754Z,69.50
2022-09-04T00:26:54.392Z,69.53
2022-09-04T00:29:36.424Z,69.22
2022-09-04T00:32:18.901Z,69.24
2022-09-04T00:35:05.773Z,69.40
2022-09-04T00:37:39.436Z,69.29
2022-09-04T00:40:16.356Z,69.85
2022-09-04T00:43:08.159Z,69.92
2022-09-04T00:46:02.506Z,69.67
2022-09-04T00:48:59.861Z,69.51
2022-09-04T00:51:38.241Z,69.30
2022-09-04T00:54:30.027Z,69.16
2022-09-04T00:57:45.173Z,69.41
2022-09-04T01:00:16.423Z,69.71
2022-09-04T01:03:19.872Z,69.90
2022-09-04T01:06:08.116Z,69.72
2022-09-04T01:09:01.252Z,69.88
2022-09-04T01:11:41.207Z,69.44
2022-09-04T01:14:20.127Z,69.83
2022-09-04T01:16:54.179Z,70.03
2022-09-04T01:19:41.937Z,69.85
2022-09-04T01:22:27.481Z,69.63
2022-09-04T01:25:14.215Z,69.59
2022-09-04T01:27:54.596Z,69.53
2022-09-04T01:30:23.779Z,69.56
2022-09-04T01:33:06.360Z,69.48
2022-09-04T01:35:44.257Z,69.46
2022-09-04T01:38:19.312Z,69.68
2022-09-04T01:40:56.548Z,69.94
2022-09-04T01:43:26.485Z,69.92
2022-09-04T01:46:33.167Z,69.73
2022-09-04T01:49:09.619Z,69.83
2022-09-04T01:51:46.649Z,69.75
2022-09-04T01:54:37.827Z,69.62
2022-09-04T01:57:21.179Z,69.90
2022-09-04T02:00:04.886Z,69.73
2022-09-04T02:02:50.432Z,70.00
2022-09-04T02:05:31.021Z,69.66
2022-09-04T02:08:17.590Z,71.15
2022-09-04T02:10:56.368Z,70.76
2022-09-04T02:13:33.237Z,79.85
2022-09-04T02:16:14.658Z,79.60
2022-09-04T02:19:00.411Z,96.06
2022-09-04T02:21:36.935Z,100.00
2022-09-04T02:24:14.298Z,100.00
2022-09-04T02:26:50.643Z,100.00
2022-09-04T02:29:28.686Z,96.40
2022-09-04T02:32:13.056Z,100.00
2022-09-04T02:34:50.729Z,100.00
2022-09-04T02:37:30.244Z,100.00
2022-09-04T02:40:12.145Z,100.00
2022-09-04T02:42:52.179Z,100.00
2022-09-04T02:45:30.106Z,97.65
2022-09-04T02:48:10.772Z,98.33
2022-09-04T02:50:55.320Z,100.00
2022-09-04T02:53:31.872Z,100.00
2022-09-04T02:56:17.576Z,100.00
2022-09-04T02:59:03.359Z,100.00
2022-09-04T03:01:40.993Z,99.35
2022-09-04T03:04:19.298Z,97.92
2022-09-04T03:06:53.764Z,96.18
2022-09-04T03:09:29.362Z,100.00
2022-09-04T03:12:05.036Z,100.00
2022-09-04T03:14:41.361Z,100.00
2022-09-04T03:17:21.121Z,100.00
2022-09-04T03:20:00.291Z,100.00
2022-09-04T03:22:34.512Z,99.21
2022-09-04T03:25:41.059Z,98.97
2022-09-04T03:28:17.127Z,91.32
2022-09-04T03:30:46.756Z,85.45
2022-09-04T03:33:24.457Z,83.72
2022-09-04T03:36:02.157Z,81.96
2022-09-04T03:38:41.918Z,88.28
2022-09-04T03:41:30.272Z,90.22
2022-09-04T03:44:12.764Z,85.12
2022-09-04T03:46:56.464Z,85.86
2022-09-04T03:49:44.235Z,83.07
2022-09-04T03:52:24.874Z,83.29
2022-09-04T03:55:25.045Z,85.63
2022-09-04T03:58:17.289Z,83.41
2022-09-04T04:00:57.419Z,82.59
2022-09-04T04:03:48.358Z,80.79
2022-09-04T04:06:27.746Z,79.60
2022-09-04T04:09:21.680Z,79.20
2022-09-04T04:12:13.123Z,79.54
2022-09-04T04:15:08.537Z,79.92
2022-09-04T04:17:55.510Z,79.09
2022-09-04T04:20:38.258Z,79.05
2022-09-04T04:23:56.929Z,79.04
2022-09-04T04:26:54.103Z,78.82
2022-09-04T04:29:55.351Z,79.57
2022-09-04T04:32:40.551Z,79.08
2022-09-04T04:35:21.480Z,78.26
2022-09-04T04:38:13.928Z,78.07
2022-09-04T04:41:04.948Z,79.39
2022-09-04T04:43:51.136Z,78.99
2022-09-04T04:46:34.689Z,78.66
2022-09-04T04:49:29.961Z,78.02
2022-09-04T04:52:24.033Z,77.65
2022-09-04T04:55:16.877Z,77.30
2022-09-04T04:58:18.630Z,77.25
2022-09-04T05:00:56.880Z,77.45
2022-09-04T05:03:35.176Z,76.85
2022-09-04T05:06:14.385Z,76.94
2022-09-04T05:08:55.466Z,77.28
2022-09-04T05:11:35.620Z,76.66
2022-09-04T05:14:19.236Z,76.21
2022-09-04T05:16:58.682Z,76.59
2022-09-04T05:19:37.012Z,76.67
2022-09-04T05:22:15.682Z,76.49
2022-09-04T05:24:57.802Z,76.50
2022-09-04T05:27:49.351Z,75.85
2022-09-04T05:30:24.353Z,75.75
2022-09-04T05:33:02.450Z,73.56
2022-09-04T05:35:46.601Z,70.29
2022-09-04T05:38:23.306Z,67.79
2022-09-04T05:41:16.147Z,67.92
2022-09-04T05:44:09.701Z,68.33
2022-09-04T05:46:54.498Z,73.08
2022-09-04T05:49:40.552Z,74.42
2022-09-04T05:52:41.033Z,68.95
2022-09-04T05:55:38.460Z,74.41
2022-09-04T05:58:37.921Z,71.66
2022-09-04T06:01:24.618Z,83.67
2022-09-04T06:04:26.656Z,77.95
2022-09-04T06:07:07.918Z,82.70
2022-09-04T06:09:57.204Z,76.57
2022-09-04T06:12:53.785Z,76.42
2022-09-04T06:15:39.328Z,69.63
2022-09-04T06:18:38.872Z,78.71
2022-09-04T06:21:26.998Z,79.53
2022-09-04T06:24:26.130Z,76.34
2022-09-04T06:27:14.209Z,78.17
2022-09-04T06:30:05.253Z,82.97
2022-09-04T06:33:07.364Z,87.67
2022-09-04T06:35:52.832Z,83.40
2022-09-04T06:38:37.849Z,73.58
2022-09-04T06:41:35.603Z,74.87
2022-09-04T06:44:14.542Z,89.60
2022-09-04T06:46:53.682Z,86.14
2022-09-04T06:49:33.403Z,81.15
2022-09-04T06:52:17.819Z,83.84
2022-09-04T06:54:58.539Z,80.19
2022-09-04T06:57:55.188Z,82.25
2022-09-04T07:00:23.747Z,83.82
2022-09-04T07:03:18.388Z,89.10
2022-09-04T07:05:55.811Z,82.19
2022-09-04T07:08:37.682Z,79.16
2022-09-04T07:11:21.523Z,77.83
2022-09-04T07:14:21.623Z,80.53
2022-09-04T07:17:00.777Z,79.37
2022-09-04T07:19:54.188Z,72.54
2022-09-04T07:22:57.725Z,70.17
2022-09-04T07:25:38.308Z,72.44
2022-09-04T07:28:24.212Z,74.22
2022-09-04T07:31:03.671Z,80.72
2022-09-04T07:33:39.436Z,76.67
2022-09-04T07:36:15.046Z,75.07
2022-09-04T07:38:54.148Z,78.98
2022-09-04T07:41:28.814Z,74.35
2022-09-04T07:44:04.292Z,70.86
2022-09-04T07:46:44.501Z,72.72
2022-09-04T07:49:20.120Z,74.32
2022-09-04T07:51:59.271Z,69.87
2022-09-04T07:54:43.549Z,68.94
2022-09-04T07:57:33.118Z,69.61
2022-09-04T08:00:09.468Z,71.77
2022-09-04T08:03:04.462Z,71.36
2022-09-04T08:05:37.735Z,73.96
2022-09-04T08:08:48.284Z,74.22
2022-09-04T08:11:48.497Z,71.45
2022-09-04T08:14:28.119Z,69.47
2022-09-04T08:17:25.393Z,67.90
2022-09-04T08:20:04.075Z,72.07
2022-09-04T08:22:44.820Z,69.40
2022-09-04T08:25:24.820Z,69.97
2022-09-04T08:28:17.907Z,66.43
2022-09-04T08:30:56.269Z,64.49
2022-09-04T08:33:51.131Z,61.96
2022-09-04T08:36:32.641Z,63.24
2022-09-04T08:39:08.706Z,61.81
2022-09-04T08:42:05.842Z,60.44
2022-09-04T08:45:22.343Z,63.87
2022-09-04T08:48:43.163Z,59.67
2022-09-04T08:51:40.091Z,60.04
2022-09-04T08:54:41.178Z,57.06
2022-09-04T08:57:30.196Z,60.09
2022-09-04T09:00:10.007Z,67.13
2022-09-04T09:03:23.539Z,60.69
2022-09-04T09:06:26.599Z,60.73
2022-09-04T09:09:35.021Z,59.43
2022-09-04T09:12:41.552Z,61.94
2022-09-04T09:16:01.190Z,63.72
2022-09-04T09:18:42.839Z,60.37
2022-09-04T09:21:18.066Z,67.42
2022-09-04T09:24:15.448Z,60.43
2022-09-04T09:27:06.899Z,57.12
2022-09-04T09:30:00.085Z,56.04
2022-09-04T09:33:11.378Z,61.72
2022-09-04T09:36:06.557Z,58.05
2022-09-04T09:39:14.830Z,56.93
2022-09-04T09:42:21.089Z,57.84
2022-09-04T09:45:15.179Z,58.30
2022-09-04T09:48:12.451Z,58.53
2022-09-04T09:51:14.315Z,59.40
2022-09-04T09:54:34.251Z,59.56
2022-09-04T09:57:40.644Z,58.81
2022-09-04T10:00:15.423Z,58.81
2022-09-04T10:03:44.158Z,57.49
2022-09-04T10:06:53.914Z,54.98
2022-09-04T10:09:55.035Z,59.22
2022-09-04T10:13:02.231Z,58.91
2022-09-04T10:16:06.503Z,61.61
2022-09-04T10:19:05.762Z,57.62
2022-09-04T10:22:10.015Z,57.94
2022-09-04T10:25:10.863Z,59.28
2022-09-04T10:28:17.164Z,55.47
2022-09-04T10:31:18.394Z,56.52
2022-09-04T10:34:10.439Z,56.74
2022-09-04T10:36:49.173Z,54.02
2022-09-04T10:39:44.592Z,53.59
2022-09-04T10:42:32.028Z,55.57
2022-09-04T10:45:22.242Z,58.76
2022-09-04T10:48:28.472Z,54.34
2022-09-04T10:51:33.508Z,52.67
2022-09-04T10:54:54.364Z,54.45
2022-09-04T10:57:39.431Z,55.97
2022-09-04T11:00:12.298Z,53.19
2022-09-04T11:03:13.823Z,55.00
2022-09-04T11:06:08.719Z,53.61
2022-09-04T11:09:11.697Z,53.92
2022-09-04T11:12:09.578Z,51.78
2022-09-04T11:14:58.882Z,51.73
2022-09-04T11:18:01.188Z,50.00
2022-09-04T11:21:13.302Z,51.57
2022-09-04T11:24:18.693Z,55.81
2022-09-04T11:27:39.557Z,53.76
2022-09-04T11:30:17.724Z,52.49
2022-09-04T11:33:04.235Z,55.88
2022-09-04T11:36:12.513Z,58.20
2022-09-04T11:39:06.707Z,54.10
2022-09-04T11:42:08.392Z,53.55
2022-09-04T11:44:54.147Z,52.14
2022-09-04T11:48:00.122Z,53.34
2022-09-04T11:50:56.490Z,51.41
2022-09-04T11:53:42.911Z,50.11
2022-09-04T11:56:37.032Z,53.78
2022-09-04T11:59:29.738Z,52.93
2022-09-04T12:02:40.513Z,51.85
2022-09-04T12:05:20.183Z,50.89
2022-09-04T12:08:06.061Z,51.40
2022-09-04T12:10:52.572Z,53.30
2022-09-04T12:13:47.190Z,55.25
2022-09-04T12:17:01.692Z,55.29
2022-09-04T12:20:11.760Z,55.88
2022-09-04T12:23:13.866Z,55.99
2022-09-04T12:26:17.339Z,49.69
2022-09-04T12:29:26.043Z,52.81
2022-09-04T12:32:37.356Z,52.58
2022-09-04T12:35:49.068Z,53.56
2022-09-04T12:39:04.071Z,50.82
2022-09-04T12:41:41.432Z,51.56
2022-09-04T12:44:18.719Z,54.13
2022-09-04T12:47:14.052Z,52.84
2022-09-04T12:50:01.291Z,49.60
2022-09-04T12:52:47.415Z,46.11
2022-09-04T12:55:25.626Z,46.00
2022-09-04T12:58:11.998Z,46.01
2022-09-04T13:00:50.817Z,47.98
2022-09-04T13:03:28.081Z,48.50
2022-09-04T13:06:14.442Z,45.07
2022-09-04T13:09:00.227Z,46.99
2022-09-04T13:11:41.851Z,44.89
2022-09-04T13:14:28.781Z,45.15
2022-09-04T13:17:03.741Z,49.42
2022-09-04T13:19:42.297Z,51.58
2022-09-04T13:22:25.513Z,48.91
2022-09-04T13:25:04.974Z,46.12
2022-09-04T13:27:50.947Z,46.26
2022-09-04T13:30:24.466Z,45.38
2022-09-04T13:33:11.330Z,43.38
2022-09-04T13:36:06.864Z,42.84
2022-09-04T13:39:05.308Z,43.01
2022-09-04T13:42:33.239Z,44.23
2022-09-04T13:45:10.569Z,43.46
2022-09-04T13:47:50.735Z,44.32
2022-09-04T13:50:25.963Z,44.25
2022-09-04T13:52:59.846Z,46.40
2022-09-04T13:55:32.213Z,45.64
2022-09-04T13:58:10.637Z,48.02
2022-09-04T14:00:47.262Z,46.96
2022-09-04T14:03:36.032Z,45.09
2022-09-04T14:06:06.884Z,45.51
2022-09-04T14:08:40.019Z,43.80
2022-09-04T14:11:36.290Z,44.42
2022-09-04T14:14:25.108Z,42.78
2022-09-04T14:16:57.254Z,43.09
2022-09-04T14:19:43.687Z,41.39
2022-09-04T14:22:33.844Z,46.67
2022-09-04T14:25:15.993Z,45.53
2022-09-04T14:27:53.019Z,45.32
2022-09-04T14:30:25.954Z,42.52
2022-09-04T14:33:22.063Z,43.32
2022-09-04T14:36:03.901Z,45.98
2022-09-04T14:39:03.804Z,45.05
2022-09-04T14:41:47.942Z,43.85
2022-09-04T14:44:39.399Z,44.44
2022-09-04T14:47:21.212Z,45.10
2022-09-04T14:50:01.467Z,42.73
2022-09-04T14:52:39.196Z,43.49
2022-09-04T14:55:16.562Z,43.27
2022-09-04T14:57:51.825Z,43.97
2022-09-04T15:00:24.898Z,43.08
2022-09-04T15:03:10.583Z,42.30
2022-09-04T15:05:53.600Z,42.69
2022-09-04T15:08:35.699Z,41.23
2022-09-04T15:11:13.431Z,42.25
2022-09-04T15:13:53.989Z,42.43
2022-09-04T15:16:31.088Z,40.41
2022-09-04T15:19:06.976Z,42.22
2022-09-04T15:21:49.563Z,40.54
2022-09-04T15:24:26.971Z,42.21
2022-09-04T15:27:07.413Z,40.74
2022-09-04T15:29:47.732Z,40.36
2022-09-04T15:32:24.696Z,40.05
2022-09-04T15:35:09.682Z,39.77
2022-09-04T15:37:40.445Z,40.43
2022-09-04T15:40:16.466Z,41.78
2022-09-04T15:42:48.313Z,42.00
2022-09-04T15:45:36.233Z,37.99
2022-09-04T15:48:30.767Z,41.49
2022-09-04T15:51:12.977Z,40.03
2022-09-04T15:53:51.752Z,40.08
2022-09-04T15:56:39.420Z,38.74
2022-09-04T15:59:18.378Z,39.61
2022-09-04T16:01:53.749Z,40.55
2022-09-04T16:04:32.137Z,40.49
2022-09-04T16:07:36.014Z,39.91
2022-09-04T16:10:15.482Z,36.68
2022-09-04T16:12:53.372Z,37.84
2022-09-04T16:15:30.388Z,38.78
2022-09-04T16:18:03.815Z,38.38
2022-09-04T16:20:39.453Z,38.17
2022-09-04T16:23:15.199Z,39.13
2022-09-04T16:25:50.024Z,38.93
2022-09-04T16:28:31.651Z,37.26
2022-09-04T16:31:03.807Z,38.53
2022-09-04T16:33:38.533Z,38.05
2022-09-04T16:36:14.299Z,38.24
2022-09-04T16:38:48.840Z,38.29
2022-09-04T16:41:26.337Z,38.76
2022-09-04T16:44:22.092Z,39.01
2022-09-04T16:47:05.027Z,38.29
2022-09-04T16:49:43.612Z,38.14
2022-09-04T16:52:40.532Z,38.03
2022-09-04T16:55:15.235Z,41.11
2022-09-04T16:57:53.744Z,40.88
2022-09-04T17:00:24.295Z,39.75
2022-09-04T17:02:58.791Z,42.21
2022-09-04T17:05:35.333Z,39.29
2022-09-04T17:08:14.149Z,38.12
2022-09-04T17:10:47.981Z,39.44
2022-09-04T17:13:28.035Z,39.16
2022-09-04T17:16:03.575Z,39.57
2022-09-04T17:18:36.623Z,40.32
2022-09-04T17:23:43.041Z,38.26
2022-09-04T17:29:00.869Z,38.75
2022-09-04T17:29:16.213Z,38.99
2022-09-04T17:30:31.615Z,41.03
2022-09-04T17:37:32.867Z,39.72
2022-09-04T17:40:33.313Z,39.88
2022-09-04T17:40:54.604Z,40.67
2022-09-04T17:42:09.390Z,42.55
2022-09-04T17:44:48.932Z,42.57
2022-09-04T17:47:34.143Z,42.32
2022-09-04T17:50:14.011Z,41.85
2022-09-04T17:53:01.758Z,41.83
2022-09-04T17:55:38.709Z,42.31
2022-09-04T17:58:13.457Z,40.96
2022-09-04T18:01:15.356Z,43.58
2022-09-04T18:04:20.491Z,43.34
2022-09-04T18:06:58.926Z,43.60
2022-09-04T18:09:34.709Z,43.83
2022-09-04T18:12:11.741Z,44.02
2022-09-04T18:15:25.191Z,44.22
2022-09-04T18:17:48.245Z,44.91
2022-09-04T18:20:31.551Z,46.20
2022-09-04T18:23:28.711Z,46.85
2022-09-04T18:26:04.917Z,48.27
2022-09-04T18:28:41.160Z,48.63
2022-09-04T18:37:09.677Z,48.43
2022-09-04T18:37:15.980Z,48.78
2022-09-04T18:37:43.999Z,47.13
2022-09-04T18:40:43.100Z,52.26
2022-09-04T18:48:47.423Z,52.09
2022-09-04T18:50:29.879Z,52.70
2022-09-04T18:50:30.118Z,52.45
2022-09-04T18:51:59.386Z,53.15
2022-09-04T18:54:39.758Z,53.58
2022-09-04T18:57:24.569Z,53.99
2022-09-04T19:00:08.813Z,54.33
2022-09-04T19:02:51.473Z,54.49
2022-09-04T19:05:44.656Z,54.87
2022-09-04T19:08:21.883Z,55.28
2022-09-04T19:10:55.470Z,55.67
2022-09-04T19:13:30.445Z,55.79
2022-09-04T19:16:06.648Z,56.35
2022-09-04T19:18:47.324Z,56.20
2022-09-04T19:21:28.381Z,56.53
2022-09-04T19:24:04.272Z,56.64
2022-09-04T19:26:46.129Z,56.61
2022-09-04T19:29:24.266Z,56.89
2022-09-04T19:32:01.376Z,57.22
2022-09-04T19:34:41.809Z,57.43
2022-09-04T19:37:55.685Z,57.69
2022-09-04T19:45:54.666Z,57.47
2022-09-04T19:46:16.322Z,57.92
2022-09-04T19:52:00.870Z,57.78
2022-09-04T19:53:36.808Z,57.96
2022-09-04T19:55:24.782Z,58.00
2022-09-04T19:58:09.323Z,57.93
2022-09-04T20:00:44.440Z,58.29
2022-09-04T20:03:30.130Z,58.35
2022-09-04T20:06:20.274Z,58.86
2022-09-04T20:09:00.529Z,58.52
2022-09-04T20:11:36.540Z,58.59
2022-09-04T20:14:15.896Z,58.85
2022-09-04T20:16:56.898Z,58.71
2022-09-04T20:19:38.253Z,58.97
2022-09-04T20:22:18.889Z,58.87
2022-09-04T20:24:58.501Z,58.94
2022-09-04T20:27:36.323Z,57.38
2022-09-04T20:30:12.849Z,59.13
2022-09-04T20:32:56.141Z,59.30
2022-09-04T20:35:34.816Z,59.33
2022-09-04T20:38:23.176Z,59.15
2022-09-04T20:40:58.318Z,59.48
2022-09-04T20:43:36.764Z,59.46
2022-09-04T20:52:42.499Z,59.59
2022-09-04T20:52:52.229Z,59.58
2022-09-04T20:53:04.212Z,59.60
2022-09-04T20:55:26.680Z,59.52
2022-09-04T21:03:12.254Z,59.74
2022-09-04T21:03:19.608Z,59.70
2022-09-04T21:04:13.781Z,59.81
2022-09-04T21:06:52.134Z,60.00
2022-09-04T21:09:38.388Z,59.90
2022-09-04T21:12:34.829Z,60.16
2022-09-04T21:15:11.670Z,59.72
2022-09-04T21:18:18.305Z,60.11
2022-09-04T21:21:10.662Z,60.34
2022-09-04T21:24:12.339Z,60.33
2022-09-04T21:27:05.346Z,60.33
2022-09-04T21:29:59.581Z,60.42
2022-09-04T21:32:50.194Z,60.66
2022-09-04T21:35:25.236Z,60.56
2022-09-04T21:38:16.551Z,60.48
2022-09-04T21:41:32.865Z,60.48
2022-09-04T21:44:46.911Z,60.55
2022-09-04T21:47:45.510Z,60.95
2022-09-04T21:50:48.140Z,61.03
2022-09-04T21:53:57.495Z,61.02
2022-09-04T22:02:31.636Z,61.11
2022-09-04T22:02:36.084Z,60.75
2022-09-04T22:03:30.008Z,60.57
2022-09-04T22:06:11.868Z,60.78
2022-09-04T22:13:32.224Z,60.77
2022-09-04T22:13:42.964Z,61.09
2022-09-04T22:14:57.970Z,61.12
2022-09-04T22:17:59.519Z,60.93
2022-09-04T22:21:14.284Z,61.56
2022-09-04T22:24:29.725Z,62.83
2022-09-04T22:27:58.665Z,63.73
2022-09-04T22:30:32.310Z,62.53
2022-09-04T22:33:27.675Z,62.28
2022-09-04T22:36:46.924Z,61.72
2022-09-04T22:39:48.508Z,61.59
2022-09-04T22:42:40.696Z,61.71
2022-09-04T22:45:37.068Z,61.32
2022-09-04T22:48:47.836Z,61.30
2022-09-04T22:52:10.421Z,61.42
2022-09-04T22:54:58.732Z,61.55
2022-09-04T22:57:45.147Z,61.32
2022-09-04T23:00:20.143Z,61.19
2022-09-04T23:03:23.170Z,61.56
2022-09-04T23:09:04.508Z,61.68
2022-09-04T23:13:42.326Z,61.52
2022-09-04T23:13:56.458Z,62.07
2022-09-04T23:16:36.155Z,61.55
2022-09-04T23:25:49.024Z,61.51
2022-09-04T23:26:32.772Z,61.28
2022-09-04T23:26:57.302Z,61.84
2022-09-04T23:30:07.659Z,61.70
2022-09-04T23:33:32.151Z,61.86
2022-09-04T23:36:33.859Z,62.30
2022-09-04T23:39:28.587Z,62.17
2022-09-04T23:42:16.898Z,62.09
2022-09-04T23:45:15.165Z,62.01
2022-09-04T23:48:12.457Z,62.24
2022-09-04T23:50:55.365Z,62.38
2022-09-04T23:53:36.554Z,62.25
2022-09-04T23:56:23.712Z,62.37
2022-09-04T23:59:22.771Z,62.41
